createdAt,value
2023-12-13T00:01:20.040Z,1.70
2023-12-13T00:03:47.177Z,4.93
2023-12-13T00:06:13.460Z,2.13
2023-12-13T00:08:39.940Z,4.37
2023-12-13T00:11:06.450Z,1.63
2023-12-13T00:13:32.741Z,2.53
2023-12-13T00:15:59.208Z,3.23
2023-12-13T00:18:25.615Z,3.80
2023-12-13T00:20:52.742Z,7.10
2023-12-13T00:23:19.053Z,0.80
2023-12-13T00:25:45.585Z,0.87
2023-12-13T00:28:12.072Z,3.03
2023-12-13T00:30:38.393Z,3.97
2023-12-13T00:33:04.942Z,1.10
2023-12-13T00:35:31.434Z,8.17
2023-12-13T00:37:58.436Z,2.23
2023-12-13T00:40:24.892Z,3.50
2023-12-13T00:42:51.427Z,2.87
2023-12-13T00:45:17.776Z,3.07
2023-12-13T00:47:44.196Z,2.53
2023-12-13T00:50:10.553Z,1.80
2023-12-13T00:52:36.961Z,3.60
2023-12-13T00:55:05.043Z,2.07
2023-12-13T00:57:31.687Z,2.50
2023-12-13T00:59:58.111Z,5.07
2023-12-13T01:02:24.590Z,3.30
2023-12-13T01:04:51.002Z,5.60
2023-12-13T01:07:17.396Z,1.13
2023-12-13T01:09:43.791Z,7.37
2023-12-13T01:12:11.061Z,5.50
2023-12-13T01:14:37.348Z,3.10
2023-12-13T01:17:03.998Z,4.37
2023-12-13T01:19:30.304Z,2.23
2023-12-13T01:21:56.617Z,2.90
2023-12-13T01:24:23.063Z,6.43
2023-12-13T01:26:49.432Z,2.13
2023-12-13T01:29:16.474Z,6.97
2023-12-13T01:31:42.727Z,2.27
2023-12-13T01:34:09.093Z,6.13
2023-12-13T01:36:41.053Z,2.70
2023-12-13T01:39:08.093Z,5.13
2023-12-13T01:41:34.605Z,6.07
2023-12-13T01:44:01.282Z,5.33
2023-12-13T01:46:30.957Z,6.07
2023-12-13T01:48:57.462Z,5.30
2023-12-13T01:51:24.030Z,3.73
2023-12-13T01:53:50.668Z,5.27
2023-12-13T01:56:17.020Z,4.33
2023-12-13T01:58:44.486Z,2.40
2023-12-13T02:01:11.192Z,5.07
2023-12-13T02:03:38.897Z,4.43
2023-12-13T02:06:05.899Z,3.70
2023-12-13T02:08:32.502Z,1.37
2023-12-13T02:11:00.163Z,8.30
2023-12-13T02:13:26.586Z,6.47
2023-12-13T02:15:53.003Z,1.80
2023-12-13T02:18:19.286Z,2.40
2023-12-13T02:20:46.473Z,6.50
2023-12-13T02:23:13.516Z,6.83
2023-12-13T02:25:43.914Z,5.53
2023-12-13T02:28:10.360Z,4.47
2023-12-13T02:30:36.769Z,2.30
2023-12-13T02:33:03.402Z,4.40
2023-12-13T02:35:29.766Z,7.03
2023-12-13T02:37:56.112Z,5.80
2023-12-13T02:40:23.563Z,2.10
2023-12-13T02:42:49.823Z,3.60
2023-12-13T02:45:16.345Z,5.20
2023-12-13T02:47:42.781Z,4.43
2023-12-13T02:50:10.285Z,4.30
2023-12-13T02:52:36.739Z,4.30
2023-12-13T02:55:03.442Z,3.07
2023-12-13T02:57:30.992Z,5.73
2023-12-13T02:59:57.448Z,6.97
2023-12-13T03:02:23.837Z,8.03
2023-12-13T03:04:50.226Z,5.60
2023-12-13T03:07:16.608Z,3.70
2023-12-13T03:09:42.905Z,3.70
2023-12-13T03:12:09.084Z,3.00
2023-12-13T03:14:36.328Z,4.00
2023-12-13T03:17:02.703Z,4.43
2023-12-13T03:19:29.048Z,5.50
2023-12-13T03:21:55.307Z,4.30
2023-12-13T03:24:21.727Z,3.83
2023-12-13T03:26:48.155Z,4.53
2023-12-13T03:29:14.534Z,6.03
2023-12-13T03:31:41.545Z,3.50
2023-12-13T03:34:08.100Z,5.87
2023-12-13T03:36:34.422Z,7.30
2023-12-13T03:39:00.719Z,7.03
2023-12-13T03:41:27.059Z,9.00
2023-12-13T03:43:53.439Z,6.30
2023-12-13T03:46:21.070Z,8.50
2023-12-13T03:48:47.992Z,6.03
2023-12-13T03:51:14.493Z,11.10
2023-12-13T03:53:42.897Z,7.47
2023-12-13T03:56:10.650Z,4.10
2023-12-13T03:58:37.571Z,7.13
2023-12-13T04:01:04.371Z,6.80
2023-12-13T04:03:30.815Z,8.93
2023-12-13T04:05:57.853Z,6.00
2023-12-13T04:08:24.269Z,5.80
2023-12-13T04:10:50.643Z,4.00
2023-12-13T04:13:16.986Z,6.20
2023-12-13T04:15:43.243Z,7.27
2023-12-13T04:18:09.563Z,7.87
2023-12-13T04:20:36.010Z,9.37
2023-12-13T04:23:04.161Z,10.37
2023-12-13T04:25:30.472Z,10.70
2023-12-13T04:27:56.837Z,9.90
2023-12-13T04:30:23.191Z,5.03
2023-12-13T04:32:49.875Z,9.43
2023-12-13T04:35:16.262Z,10.57
2023-12-13T04:37:42.963Z,5.87
2023-12-13T04:40:11.161Z,6.97
2023-12-13T04:42:37.513Z,9.17
2023-12-13T04:45:05.112Z,9.07
2023-12-13T04:47:31.724Z,11.40
2023-12-13T04:49:58.185Z,8.50
2023-12-13T04:52:24.805Z,10.23
2023-12-13T04:54:53.116Z,8.93
2023-12-13T04:57:20.845Z,13.83
2023-12-13T04:59:47.365Z,10.37
2023-12-13T05:02:13.652Z,11.07
2023-12-13T05:04:39.940Z,9.10
2023-12-13T05:07:06.307Z,9.83
2023-12-13T05:09:32.644Z,12.87
2023-12-13T05:11:59.091Z,11.47
2023-12-13T05:14:25.994Z,9.30
2023-12-13T05:16:52.588Z,11.83
2023-12-13T05:19:19.117Z,11.00
2023-12-13T05:21:45.506Z,11.63
2023-12-13T05:24:11.948Z,19.83
2023-12-13T05:26:38.261Z,14.13
2023-12-13T05:29:04.556Z,10.97
2023-12-13T05:31:31.628Z,11.70
2023-12-13T05:33:57.981Z,6.70
2023-12-13T05:36:25.437Z,10.47
2023-12-13T05:38:52.615Z,10.23
2023-12-13T05:41:18.991Z,4.87
2023-12-13T05:43:45.398Z,7.97
2023-12-13T05:46:11.919Z,10.53
2023-12-13T05:48:39.208Z,9.83
2023-12-13T05:51:06.297Z,12.83
2023-12-13T05:53:32.715Z,7.83
2023-12-13T05:56:00.209Z,14.83
2023-12-13T05:58:27.081Z,16.00
2023-12-13T06:00:53.381Z,11.73
2023-12-13T06:03:20.145Z,19.23
2023-12-13T06:05:47.620Z,11.93
2023-12-13T06:08:14.024Z,19.67
2023-12-13T06:10:40.689Z,12.23
2023-12-13T06:13:07.070Z,11.00
2023-12-13T06:15:33.481Z,13.27
2023-12-13T06:18:00.001Z,11.73
2023-12-13T06:20:26.708Z,12.63
2023-12-13T06:22:54.754Z,13.27
2023-12-13T06:25:21.106Z,12.53
2023-12-13T06:27:47.322Z,16.33
2023-12-13T06:30:14.107Z,13.30
2023-12-13T06:32:40.554Z,10.37
2023-12-13T06:35:07.656Z,10.07
2023-12-13T06:37:34.247Z,9.07
2023-12-13T06:40:01.608Z,9.37
2023-12-13T06:42:29.075Z,17.07
2023-12-13T06:44:55.365Z,12.63
2023-12-13T06:47:22.067Z,18.87
2023-12-13T06:49:48.455Z,16.93
2023-12-13T06:52:15.521Z,15.37
2023-12-13T06:54:42.073Z,16.27
2023-12-13T06:57:09.732Z,12.00
2023-12-13T06:59:36.120Z,10.27
2023-12-13T07:02:05.421Z,7.37
2023-12-13T07:04:32.010Z,15.87
2023-12-13T07:06:59.193Z,15.23
2023-12-13T07:09:25.742Z,10.57
2023-12-13T07:11:52.229Z,10.73
2023-12-13T07:14:20.185Z,16.47
2023-12-13T07:16:46.633Z,15.30
2023-12-13T07:19:13.817Z,14.57
2023-12-13T07:21:40.154Z,13.27
2023-12-13T07:24:06.690Z,13.20
2023-12-13T07:26:33.750Z,12.40
2023-12-13T07:29:01.354Z,12.83
2023-12-13T07:31:28.460Z,13.70
2023-12-13T07:33:54.894Z,12.87
2023-12-13T07:36:21.227Z,8.97
2023-12-13T07:38:48.125Z,13.00
2023-12-13T07:41:14.867Z,12.90
2023-12-13T07:43:41.172Z,12.87
2023-12-13T07:46:07.420Z,9.57
2023-12-13T07:48:34.756Z,14.13
2023-12-13T07:51:01.357Z,10.20
2023-12-13T07:53:28.156Z,14.47
2023-12-13T07:55:54.678Z,6.90
2023-12-13T07:58:21.346Z,11.00
2023-12-13T08:00:48.249Z,12.57
2023-12-13T08:03:14.745Z,7.70
2023-12-13T08:05:41.906Z,11.73
2023-12-13T08:08:08.897Z,5.83
2023-12-13T08:10:35.326Z,10.63
2023-12-13T08:13:01.672Z,15.67
2023-12-13T08:15:28.143Z,9.07
2023-12-13T08:17:54.639Z,15.10
2023-12-13T08:20:21.103Z,14.20
2023-12-13T08:22:48.301Z,8.77
2023-12-13T08:25:14.874Z,18.63
2023-12-13T08:27:41.252Z,10.33
2023-12-13T08:30:08.684Z,13.57
2023-12-13T08:32:34.954Z,14.70
2023-12-13T08:35:01.279Z,13.00
2023-12-13T08:37:27.713Z,7.67
2023-12-13T08:39:57.231Z,8.93
2023-12-13T08:42:26.312Z,7.93
2023-12-13T08:44:54.581Z,11.40
2023-12-13T08:47:22.262Z,17.30
2023-12-13T08:49:49.312Z,11.73
2023-12-13T08:52:17.697Z,9.97
2023-12-13T08:54:44.020Z,15.23
2023-12-13T08:57:11.060Z,12.90
2023-12-13T08:59:37.306Z,13.27
2023-12-13T09:02:04.146Z,11.67
2023-12-13T09:04:30.503Z,12.13
2023-12-13T09:06:57.215Z,13.40
2023-12-13T09:09:23.421Z,13.00
2023-12-13T09:11:49.686Z,12.43
2023-12-13T09:14:16.726Z,10.30
2023-12-13T09:16:43.081Z,9.03
2023-12-13T09:19:09.478Z,11.73
2023-12-13T09:21:35.832Z,8.43
2023-12-13T09:24:03.385Z,7.40
2023-12-13T09:26:29.671Z,9.23
2023-12-13T09:28:59.826Z,6.97
2023-12-13T09:31:26.785Z,9.77
2023-12-13T09:33:53.256Z,12.93
2023-12-13T09:36:20.183Z,13.43
2023-12-13T09:38:47.230Z,11.73
2023-12-13T09:41:14.248Z,12.03
2023-12-13T09:43:42.627Z,9.07
2023-12-13T09:46:12.180Z,8.17
2023-12-13T09:48:39.719Z,10.57
2023-12-13T09:51:10.660Z,9.40
2023-12-13T09:53:38.828Z,7.50
2023-12-13T09:56:05.751Z,9.53
2023-12-13T09:58:32.037Z,13.30
2023-12-13T10:00:58.374Z,11.97
2023-12-13T10:03:24.891Z,14.63
2023-12-13T10:05:52.513Z,10.00
2023-12-13T10:08:19.511Z,9.33
2023-12-13T10:10:47.707Z,14.30
2023-12-13T10:13:14.597Z,15.73
2023-12-13T10:15:40.864Z,12.97
2023-12-13T10:18:07.347Z,13.93
2023-12-13T10:20:35.336Z,17.53
2023-12-13T10:23:05.406Z,15.93
2023-12-13T10:25:31.711Z,11.47
2023-12-13T10:27:58.148Z,14.43
2023-12-13T10:30:26.194Z,12.13
2023-12-13T10:32:52.606Z,15.07
2023-12-13T10:35:19.994Z,10.60
2023-12-13T10:37:48.854Z,15.47
2023-12-13T10:40:18.279Z,13.73
2023-12-13T10:42:46.034Z,9.73
2023-12-13T10:45:12.685Z,11.83
2023-12-13T10:47:44.969Z,12.00
2023-12-13T10:50:12.288Z,12.00
2023-12-13T10:52:40.029Z,15.10
2023-12-13T10:55:08.015Z,18.43
2023-12-13T10:57:36.826Z,13.37
2023-12-13T11:00:04.022Z,12.37
2023-12-13T11:02:35.230Z,15.80
2023-12-13T11:05:01.859Z,16.17
2023-12-13T11:07:28.290Z,13.47
2023-12-13T11:09:55.635Z,17.17
2023-12-13T11:12:22.317Z,15.37
2023-12-13T11:14:50.584Z,11.07
2023-12-13T11:17:18.384Z,14.60
2023-12-13T11:19:45.861Z,14.60
2023-12-13T11:22:12.812Z,14.93
2023-12-13T11:24:41.401Z,16.53
2023-12-13T11:27:10.637Z,16.37
2023-12-13T11:29:37.064Z,17.17
2023-12-13T11:32:05.202Z,12.10
2023-12-13T11:34:35.534Z,16.93
2023-12-13T11:37:03.382Z,17.40
2023-12-13T11:39:30.034Z,13.33
2023-12-13T11:41:57.603Z,12.80
2023-12-13T11:44:27.011Z,22.43
2023-12-13T11:46:54.340Z,16.83
2023-12-13T11:49:22.124Z,13.57
2023-12-13T11:51:48.738Z,17.13
2023-12-13T11:54:15.206Z,7.63
2023-12-13T11:56:41.925Z,10.53
2023-12-13T11:59:08.195Z,11.33
2023-12-13T12:01:35.828Z,10.73
2023-12-13T12:04:03.006Z,8.80
2023-12-13T12:06:30.422Z,8.50
2023-12-13T12:09:00.193Z,16.73
2023-12-13T12:11:26.664Z,10.80
2023-12-13T12:13:53.086Z,15.73
2023-12-13T12:16:19.995Z,11.50
2023-12-13T12:18:46.419Z,13.57
2023-12-13T12:21:13.024Z,12.10
2023-12-13T12:23:40.920Z,11.47
2023-12-13T12:26:11.856Z,12.20
2023-12-13T12:28:39.842Z,12.47
2023-12-13T12:31:07.023Z,11.00
2023-12-13T12:33:33.369Z,12.40
2023-12-13T12:35:59.824Z,7.03
2023-12-13T12:38:26.206Z,10.60
2023-12-13T12:40:53.115Z,8.20
2023-12-13T12:43:20.707Z,9.43
2023-12-13T12:45:47.401Z,8.13
2023-12-13T12:48:14.124Z,11.20
2023-12-13T12:50:40.672Z,17.53
2023-12-13T12:53:07.995Z,9.17
2023-12-13T12:55:34.702Z,9.30
2023-12-13T12:58:01.654Z,11.07
2023-12-13T13:00:27.944Z,11.93
2023-12-13T13:02:54.387Z,20.33
2023-12-13T13:05:20.777Z,12.87
2023-12-13T13:07:47.397Z,11.37
2023-12-13T13:10:13.706Z,12.50
2023-12-13T13:12:40.664Z,12.07
2023-12-13T13:15:10.165Z,17.23
2023-12-13T13:17:37.268Z,16.90
2023-12-13T13:20:13.054Z,10.07
2023-12-13T13:22:40.121Z,10.73
2023-12-13T13:25:07.016Z,10.27
2023-12-13T13:27:33.335Z,10.23
2023-12-13T13:29:59.699Z,8.30
2023-12-13T13:32:26.734Z,12.30
2023-12-13T13:34:53.679Z,11.27
2023-12-13T13:37:20.092Z,10.57
2023-12-13T13:39:48.125Z,9.23
2023-12-13T13:42:14.690Z,19.53
2023-12-13T13:44:41.174Z,16.67
2023-12-13T13:47:08.060Z,11.57
2023-12-13T13:49:35.068Z,11.00
2023-12-13T13:52:01.424Z,15.27
2023-12-13T13:54:29.010Z,14.13
2023-12-13T13:56:55.246Z,8.57
2023-12-13T13:59:21.633Z,9.83
2023-12-13T14:01:49.095Z,12.53
2023-12-13T14:04:15.562Z,6.43
2023-12-13T14:06:43.160Z,9.83
2023-12-13T14:09:10.293Z,11.67
2023-12-13T14:11:36.614Z,11.53
2023-12-13T14:14:03.102Z,8.87
2023-12-13T14:16:29.569Z,11.23
2023-12-13T14:18:56.448Z,14.87
2023-12-13T14:21:23.023Z,10.47
2023-12-13T14:23:50.006Z,12.10
2023-12-13T14:26:16.645Z,17.13
2023-12-13T14:28:43.233Z,13.00
2023-12-13T14:31:09.521Z,11.97
2023-12-13T14:33:35.887Z,10.60
2023-12-13T14:36:02.155Z,13.53
2023-12-13T14:38:28.392Z,15.93
2023-12-13T14:40:55.611Z,13.77
2023-12-13T14:43:22.389Z,12.13
2023-12-13T14:45:48.641Z,12.07
2023-12-13T14:48:15.163Z,9.47
2023-12-13T14:50:41.993Z,11.67
2023-12-13T14:53:09.068Z,17.90
2023-12-13T14:55:35.927Z,11.73
2023-12-13T14:58:03.136Z,10.43
2023-12-13T15:00:29.632Z,10.77
2023-12-13T15:02:56.751Z,12.67
2023-12-13T15:05:23.314Z,11.03
2023-12-13T15:07:52.277Z,18.53
2023-12-13T15:10:18.890Z,8.63
2023-12-13T15:12:45.266Z,9.07
2023-12-13T15:15:12.250Z,19.43
2023-12-13T15:17:39.269Z,16.33
2023-12-13T15:20:09.050Z,11.03
2023-12-13T15:22:36.026Z,11.47
2023-12-13T15:25:06.729Z,17.80
2023-12-13T15:27:36.851Z,13.55
2023-12-13T15:30:04.297Z,12.27
2023-12-13T15:32:31.459Z,11.90
2023-12-13T15:34:57.894Z,11.33
2023-12-13T15:37:24.248Z,13.73
2023-12-13T15:39:50.511Z,14.50
2023-12-13T15:42:16.721Z,14.30
2023-12-13T15:44:42.937Z,11.73
2023-12-13T15:47:09.228Z,5.30
2023-12-13T15:49:36.261Z,14.27
2023-12-13T15:52:03.534Z,12.67
2023-12-13T15:54:29.878Z,11.07
2023-12-13T15:56:56.096Z,3.97
2023-12-13T15:59:22.356Z,11.00
2023-12-13T16:01:48.724Z,8.87
2023-12-13T16:04:15.137Z,11.93
2023-12-13T16:06:42.204Z,5.93
2023-12-13T16:09:08.472Z,12.17
2023-12-13T16:11:34.832Z,8.20
2023-12-13T16:14:01.556Z,12.27
2023-12-13T16:16:28.322Z,10.33
2023-12-13T16:18:55.117Z,6.23
2023-12-13T16:21:21.742Z,9.50
2023-12-13T16:23:49.153Z,11.13
2023-12-13T16:26:15.475Z,18.97
2023-12-13T16:28:41.878Z,8.87
2023-12-13T16:31:08.268Z,13.00
2023-12-13T16:33:35.544Z,13.80
2023-12-13T16:36:01.830Z,5.00
2023-12-13T16:38:28.332Z,9.60
2023-12-13T16:40:56.655Z,8.23
2023-12-13T16:43:23.054Z,6.97
2023-12-13T16:45:50.811Z,5.27
2023-12-13T16:48:17.311Z,9.57
2023-12-13T16:50:43.766Z,10.37
2023-12-13T16:53:10.584Z,7.87
2023-12-13T16:55:37.202Z,8.37
2023-12-13T16:58:05.605Z,12.00
2023-12-13T17:00:31.909Z,13.40
2023-12-13T17:02:59.743Z,9.70
2023-12-13T17:05:27.875Z,11.10
2023-12-13T17:07:54.392Z,7.20
2023-12-13T17:10:20.695Z,7.50
2023-12-13T17:12:47.104Z,13.70
2023-12-13T17:15:14.348Z,15.20
2023-12-13T17:17:41.093Z,14.97
2023-12-13T17:20:08.413Z,9.73
2023-12-13T17:22:35.524Z,15.40
2023-12-13T17:25:02.468Z,18.57
2023-12-13T17:27:29.140Z,16.50
2023-12-13T17:29:56.103Z,12.13
2023-12-13T17:32:23.136Z,17.43
2023-12-13T17:34:49.597Z,21.57
2023-12-13T17:37:19.023Z,16.07
2023-12-13T17:39:45.342Z,10.17
2023-12-13T17:42:11.777Z,12.07
2023-12-13T17:44:38.414Z,14.67
2023-12-13T17:47:06.897Z,11.47
2023-12-13T17:49:37.228Z,15.23
2023-12-13T17:52:07.195Z,15.10
2023-12-13T17:54:33.689Z,17.70
2023-12-13T17:57:02.629Z,14.60
2023-12-13T17:59:28.959Z,19.57
2023-12-13T18:01:55.264Z,12.70
2023-12-13T18:04:21.908Z,17.30
2023-12-13T18:06:49.889Z,18.70
2023-12-13T18:09:16.791Z,12.23
2023-12-13T18:11:44.199Z,11.97
2023-12-13T18:14:10.631Z,11.13
2023-12-13T18:16:37.442Z,9.00
2023-12-13T18:19:03.994Z,10.00
2023-12-13T18:21:30.748Z,11.43
2023-12-13T18:23:57.669Z,12.80
2023-12-13T18:26:23.998Z,12.63
2023-12-13T18:28:50.307Z,8.30
2023-12-13T18:31:16.732Z,10.87
2023-12-13T18:33:43.742Z,13.47
2023-12-13T18:36:11.051Z,11.47
2023-12-13T18:38:37.529Z,10.00
2023-12-13T18:41:04.795Z,10.47
2023-12-13T18:43:31.171Z,11.93
2023-12-13T18:45:57.537Z,8.20
2023-12-13T18:48:23.989Z,8.37
2023-12-13T18:50:50.393Z,7.70
2023-12-13T18:53:17.068Z,8.17
2023-12-13T18:55:43.877Z,9.73
2023-12-13T18:58:10.882Z,12.30
2023-12-13T19:00:37.229Z,8.33
2023-12-13T19:03:04.071Z,13.93
2023-12-13T19:05:30.434Z,12.80
2023-12-13T19:08:00.164Z,9.27
2023-12-13T19:10:26.696Z,12.13
2023-12-13T19:12:53.139Z,12.87
2023-12-13T19:15:19.997Z,14.00
2023-12-13T19:17:46.343Z,14.27
2023-12-13T19:20:12.851Z,8.20
2023-12-13T19:22:39.204Z,10.13
2023-12-13T19:25:06.242Z,11.03
2023-12-13T19:27:32.993Z,12.50
2023-12-13T19:29:59.432Z,13.00
2023-12-13T19:32:26.501Z,8.97
2023-12-13T19:34:53.206Z,14.90
2023-12-13T19:37:19.445Z,12.20
2023-12-13T19:39:47.564Z,19.13
2023-12-13T19:42:13.881Z,11.93
2023-12-13T19:44:40.432Z,15.97
2023-12-13T19:47:08.144Z,13.43
2023-12-13T19:49:35.119Z,15.90
2023-12-13T19:52:01.609Z,15.73
2023-12-13T19:54:27.986Z,13.97
2023-12-13T19:56:54.246Z,10.10
2023-12-13T19:59:20.596Z,11.33
2023-12-13T20:01:47.115Z,11.80
2023-12-13T20:04:13.599Z,10.80
2023-12-13T20:06:40.632Z,14.27
2023-12-13T20:09:07.167Z,18.33
2023-12-13T20:11:33.442Z,13.73
2023-12-13T20:14:03.444Z,14.03
2023-12-13T20:16:31.818Z,15.50
2023-12-13T20:18:58.838Z,14.03
2023-12-13T20:21:26.748Z,16.90
2023-12-13T20:23:53.990Z,11.40
2023-12-13T20:26:20.249Z,13.63
2023-12-13T20:28:46.729Z,13.87
2023-12-13T20:31:12.996Z,16.33
2023-12-13T20:33:39.393Z,15.20
2023-12-13T20:36:08.276Z,14.13
2023-12-13T20:38:34.580Z,20.33
2023-12-13T20:41:01.615Z,16.40
2023-12-13T20:43:27.945Z,17.17
2023-12-13T20:45:54.337Z,16.47
2023-12-13T20:48:20.705Z,19.73
2023-12-13T20:50:47.118Z,12.47
2023-12-13T20:53:13.494Z,19.43
2023-12-13T20:55:40.157Z,13.37
2023-12-13T20:58:07.320Z,19.93
2023-12-13T21:00:33.582Z,17.27
2023-12-13T21:03:00.241Z,12.87
2023-12-13T21:05:28.487Z,10.63
2023-12-13T21:07:56.123Z,18.67
2023-12-13T21:10:22.567Z,13.97
2023-12-13T21:12:48.901Z,16.27
2023-12-13T21:15:16.483Z,16.17
2023-12-13T21:17:42.969Z,13.33
2023-12-13T21:20:10.313Z,13.53
2023-12-13T21:22:37.156Z,14.43
2023-12-13T21:25:04.171Z,17.63
2023-12-13T21:27:30.549Z,13.90
2023-12-13T21:29:56.916Z,16.03
2023-12-13T21:32:24.075Z,13.57
2023-12-13T21:34:50.694Z,16.37
2023-12-13T21:37:16.960Z,14.10
2023-12-13T21:39:43.202Z,11.13
2023-12-13T21:42:09.617Z,11.43
2023-12-13T21:44:36.043Z,16.50
2023-12-13T21:47:02.567Z,12.63
2023-12-13T21:49:29.634Z,16.47
2023-12-13T21:51:56.041Z,19.83
2023-12-13T21:54:22.404Z,16.87
2023-12-13T21:56:48.725Z,14.47
2023-12-13T21:59:15.205Z,19.93
2023-12-13T22:01:42.100Z,16.60
2023-12-13T22:04:08.530Z,21.17
2023-12-13T22:06:35.612Z,24.00
2023-12-13T22:09:01.939Z,19.00
2023-12-13T22:11:28.273Z,14.40
2023-12-13T22:13:54.695Z,26.03
2023-12-13T22:16:21.628Z,20.00
2023-12-13T22:18:57.475Z,25.00
2023-12-13T22:21:24.789Z,23.10
2023-12-13T22:23:53.604Z,22.77
2023-12-13T22:26:20.468Z,24.83
2023-12-13T22:28:46.880Z,22.73
2023-12-13T22:31:13.285Z,23.13
2023-12-13T22:33:39.653Z,23.73
2023-12-13T22:36:07.217Z,24.33
2023-12-13T22:38:33.578Z,30.87
2023-12-13T22:41:00.764Z,30.97
2023-12-13T22:43:28.224Z,34.83
2023-12-13T22:45:54.552Z,31.50
2023-12-13T22:48:20.861Z,32.87
2023-12-13T22:50:47.354Z,36.33
2023-12-13T22:53:14.442Z,34.70
2023-12-13T22:55:40.827Z,38.43
2023-12-13T22:58:07.838Z,50.07
2023-12-13T23:00:34.137Z,54.87
2023-12-13T23:03:00.634Z,54.43
2023-12-13T23:05:26.971Z,53.67
2023-12-13T23:07:53.427Z,54.83
2023-12-13T23:10:20.317Z,44.70
2023-12-13T23:12:46.686Z,39.70
2023-12-13T23:15:13.621Z,43.33
2023-12-13T23:17:40.294Z,45.00
2023-12-13T23:20:08.246Z,45.07
2023-12-13T23:22:34.939Z,48.30
2023-12-13T23:25:02.183Z,43.30
2023-12-13T23:27:28.988Z,40.43
2023-12-13T23:29:55.320Z,40.83
2023-12-13T23:32:22.783Z,43.17
2023-12-13T23:34:49.648Z,42.13
2023-12-13T23:37:16.110Z,43.03
2023-12-13T23:39:42.754Z,39.20
2023-12-13T23:42:09.514Z,45.17
2023-12-13T23:44:35.827Z,44.07
2023-12-13T23:47:03.038Z,49.97
2023-12-13T23:49:30.049Z,56.90
2023-12-13T23:51:56.368Z,52.23
2023-12-13T23:54:22.599Z,58.00
2023-12-13T23:56:49.002Z,52.97
2023-12-13T23:59:15.493Z,61.00
